createdAt,value
2017-03-14T12:46:16.292Z,560
2017-03-14T12:47:29.452Z,476
2017-03-14T12:48:42.599Z,460
2017-03-14T12:49:55.695Z,468
2017-03-14T12:51:22.667Z,452
2017-03-14T12:52:34.857Z,396
2017-03-14T12:53:48.065Z,384
2017-03-14T12:55:15.230Z,440
2017-03-14T12:56:28.450Z,468
2017-03-14T12:57:54.888Z,476
2017-03-14T12:59:07.784Z,464
2017-03-14T13:00:20.620Z,448
2017-03-14T13:01:33.205Z,584
2017-03-14T13:02:45.573Z,564
2017-03-14T13:03:58.042Z,604
2017-03-14T13:05:10.459Z,680
2017-03-14T13:06:24.072Z,684
2017-03-14T13:07:37.266Z,704
2017-03-14T13:08:49.732Z,632
2017-03-14T13:10:02.600Z,680
2017-03-14T13:11:15.115Z,620
2017-03-14T13:12:27.729Z,524
2017-03-14T13:13:40.860Z,512
2017-03-14T13:14:54.000Z,548
2017-03-14T13:16:05.628Z,604
2017-03-14T13:17:18.698Z,612
2017-03-14T13:18:31.858Z,664
2017-03-14T13:19:44.890Z,656
2017-03-14T13:20:57.778Z,700
2017-03-14T13:22:10.239Z,872
2017-03-14T13:23:23.328Z,884
2017-03-14T13:24:36.233Z,944
2017-03-14T13:25:49.062Z,1044
2017-03-14T13:27:01.959Z,900
2017-03-14T13:28:14.785Z,876
2017-03-14T13:29:27.608Z,936
2017-03-14T13:30:40.439Z,876
2017-03-14T13:31:52.785Z,808
2017-03-14T13:33:05.133Z,828
2017-03-14T13:34:17.958Z,1040
